AQQ10 IFIS: Internet Flight Information System
logo dgac
Miércoles 10 de Agosto del 2022
Buscar por aerodromo o helipuerto
Ingrese nombre de aeródromo, localidad o designador OACI:
METAR del 10-08-2022 a las 18:00 UTC
Para mayor información visite www.meteochile.cl
METAR SCFA 101800Z 19009KT 9999 FEW030 15/09 Q1016 NOSIG
Viento: dirección 190 grados, velocidad 9 nudos
Visibilidad: 10 km o más
Nubes: Escasa nubosidad a 3000 pies sobre el nivel del aeródromo
Temperatura: 15 °C
Rocío: 9 °C
Humedad_relativa: 67%
Presión: 1016 hPa
No se esperan cambios significativos en las próximas 2 horas
METAR del 10-08-2022 a las 17:00 UTC
Para mayor información visite www.meteochile.cl
METAR SCFA 101700Z 19011KT 9999 FEW027 15/09 Q1016 NOSIG
Viento: dirección 190 grados, velocidad 11 nudos
Visibilidad: 10 km o más
Nubes: Escasa nubosidad a 2700 pies sobre el nivel del aeródromo
Temperatura: 15 °C
Rocío: 9 °C
Humedad_relativa: 67%
Presión: 1016 hPa
No se esperan cambios significativos en las próximas 2 horas
METAR del 10-08-2022 a las 16:00 UTC
Para mayor información visite www.meteochile.cl
METAR SCFA 101600Z 34004KT 9999 FEW027 16/08 Q1017 NOSIG
Viento: dirección 340 grados, velocidad 4 nudos
Visibilidad: 10 km o más
Nubes: Escasa nubosidad a 2700 pies sobre el nivel del aeródromo
Temperatura: 16 °C
Rocío: 8 °C
Humedad_relativa: 59%
Presión: 1017 hPa
No se esperan cambios significativos en las próximas 2 horas
METAR del 10-08-2022 a las 15:00 UTC
Para mayor información visite www.meteochile.cl
METAR SCFA 101500Z 36008KT 9999 BKN023 15/09 Q1017 NOSIG
Viento: dirección 360 grados, velocidad 8 nudos
Visibilidad: 10 km o más
Nubes: Nublado a 2300 pies sobre el nivel del aeródromo
Temperatura: 15 °C
Rocío: 9 °C
Humedad_relativa: 67%
Presión: 1017 hPa
No se esperan cambios significativos en las próximas 2 horas
METAR del 10-08-2022 a las 14:00 UTC
Para mayor información visite www.meteochile.cl
METAR SCFA 101400Z 36007KT 8000 OVC020 14/09 Q1018 NOSIG
Viento: dirección 360 grados, velocidad 7 nudos
Visibilidad: 8000 metros
Nubes: Cubierto a 2000 pies sobre el nivel del aeródromo
Temperatura: 14 °C
Rocío: 9 °C
Humedad_relativa: 72%
Presión: 1018 hPa
No se esperan cambios significativos en las próximas 2 horas
METAR del 10-08-2022 a las 13:00 UTC
Para mayor información visite www.meteochile.cl
METAR SCFA 101300Z 36008KT 9999 OVC018 13/09 Q1017 NOSIG
Viento: dirección 360 grados, velocidad 8 nudos
Visibilidad: 10 km o más
Nubes: Cubierto a 1800 pies sobre el nivel del aeródromo
Temperatura: 13 °C
Rocío: 9 °C
Humedad_relativa: 77%
Presión: 1017 hPa
No se esperan cambios significativos en las próximas 2 horas
METAR del 10-08-2022 a las 12:00 UTC
Para mayor información visite www.meteochile.cl
METAR SCFA 101200Z 35009KT 8000 OVC018 13/09 Q1017 NOSIG
Viento: dirección 350 grados, velocidad 9 nudos
Visibilidad: 8000 metros
Nubes: Cubierto a 1800 pies sobre el nivel del aeródromo
Temperatura: 13 °C
Rocío: 9 °C
Humedad_relativa: 77%
Presión: 1017 hPa
No se esperan cambios significativos en las próximas 2 horas
METAR del 10-08-2022 a las 11:00 UTC
Para mayor información visite www.meteochile.cl
METAR SCFA 101100Z 35009KT 9999 OVC016 13/09 Q1016 NOSIG
Viento: dirección 350 grados, velocidad 9 nudos
Visibilidad: 10 km o más
Nubes: Cubierto a 1600 pies sobre el nivel del aeródromo
Temperatura: 13 °C
Rocío: 9 °C
Humedad_relativa: 77%
Presión: 1016 hPa
No se esperan cambios significativos en las próximas 2 horas
METAR del 10-08-2022 a las 10:00 UTC
Para mayor información visite www.meteochile.cl
METAR SCFA 101000Z 35010KT 9999 SCT016 OVC018 13/09 Q1015 NOSIG
Viento: dirección 350 grados, velocidad 10 nudos
Visibilidad: 10 km o más
Nubes: Nubosidad parcial a 1600 pies sobre el nivel del aeródromo
Nubes: Cubierto a 1800 pies sobre el nivel del aeródromo
Temperatura: 13 °C
Rocío: 9 °C
Humedad_relativa: 77%
Presión: 1015 hPa
No se esperan cambios significativos en las próximas 2 horas
METAR del 10-08-2022 a las 09:00 UTC
Para mayor información visite www.meteochile.cl
METAR SCFA 100900Z 36011KT 9999 OVC015 13/09 Q1015 NOSIG
Viento: dirección 360 grados, velocidad 11 nudos
Visibilidad: 10 km o más
Nubes: Cubierto a 1500 pies sobre el nivel del aeródromo
Temperatura: 13 °C
Rocío: 9 °C
Humedad_relativa: 77%
Presión: 1015 hPa
No se esperan cambios significativos en las próximas 2 horas